createdAt,value
2023-04-18T00:02:41.794Z,87.70
2023-04-18T00:08:09.803Z,88.01
2023-04-18T00:13:18.678Z,87.97
2023-04-18T00:18:26.904Z,88.24
2023-04-18T00:23:35.678Z,88.10
2023-04-18T00:28:42.141Z,88.75
2023-04-18T00:33:49.871Z,89.57
2023-04-18T00:38:57.574Z,90.47
2023-04-18T00:44:04.004Z,92.01
2023-04-18T00:49:10.623Z,92.99
2023-04-18T00:54:20.332Z,93.06
2023-04-18T00:59:27.020Z,93.27
2023-04-18T01:04:33.944Z,94.71
2023-04-18T01:09:43.494Z,96.01
2023-04-18T01:14:49.891Z,96.53
2023-04-18T01:19:57.026Z,96.64
2023-04-18T01:25:10.669Z,97.38
2023-04-18T01:30:17.110Z,97.61
2023-04-18T01:35:23.556Z,97.76
2023-04-18T01:40:31.712Z,97.93
2023-04-18T01:45:39.942Z,98.47
2023-04-18T01:50:48.882Z,98.70
2023-04-18T01:55:58.108Z,98.25
2023-04-18T02:01:04.868Z,98.32
2023-04-18T02:06:12.074Z,98.27
2023-04-18T02:11:20.074Z,98.07
2023-04-18T02:16:26.502Z,97.90
2023-04-18T02:21:33.052Z,97.43
2023-04-18T02:26:40.806Z,97.22
2023-04-18T02:31:47.166Z,96.98
2023-04-18T02:36:54.602Z,96.05
2023-04-18T02:42:02.498Z,95.61
2023-04-18T02:47:08.791Z,95.14
2023-04-18T02:52:18.596Z,94.87
2023-04-18T02:57:26.464Z,94.78
2023-04-18T03:02:32.714Z,94.57
2023-04-18T03:07:47.767Z,94.18
2023-04-18T03:12:55.805Z,94.22
2023-04-18T03:18:02.383Z,93.64
2023-04-18T03:23:13.223Z,93.24
2023-04-18T03:28:21.026Z,92.81
2023-04-18T03:33:29.085Z,92.95
2023-04-18T03:38:45.298Z,92.63
2023-04-18T03:43:53.259Z,92.08
2023-04-18T03:48:59.585Z,91.78
2023-04-18T03:54:06.165Z,92.07
2023-04-18T03:59:14.319Z,91.64
2023-04-18T04:04:24.793Z,91.23
2023-04-18T04:09:31.384Z,91.17
2023-04-18T04:14:40.910Z,90.45
2023-04-18T04:19:48.297Z,90.63
2023-04-18T04:24:58.021Z,90.25
2023-04-18T04:30:14.380Z,90.36
2023-04-18T04:35:20.650Z,90.47
2023-04-18T04:40:27.094Z,90.33
2023-04-18T04:45:46.071Z,90.18
2023-04-18T04:50:57.951Z,90.46
2023-04-18T04:56:05.219Z,89.53
2023-04-18T05:01:14.355Z,90.08
2023-04-18T05:06:40.328Z,89.40
2023-04-18T05:11:47.049Z,89.83
2023-04-18T05:16:54.987Z,89.45
2023-04-18T05:22:01.452Z,89.28
2023-04-18T05:27:07.942Z,89.11
2023-04-18T05:32:20.803Z,88.44
2023-04-18T05:37:27.302Z,88.89
2023-04-18T05:42:33.691Z,88.60
2023-04-18T05:47:41.539Z,88.78
2023-04-18T05:52:47.945Z,87.65
2023-04-18T05:57:54.367Z,88.71
2023-04-18T06:03:02.581Z,88.38
2023-04-18T06:08:10.870Z,88.23
2023-04-18T06:13:17.508Z,88.39
2023-04-18T06:18:25.824Z,87.36
2023-04-18T06:23:32.318Z,87.50
2023-04-18T06:28:38.746Z,87.24
2023-04-18T06:33:46.606Z,87.52
2023-04-18T06:38:53.090Z,86.30
2023-04-18T06:44:04.087Z,85.59
2023-04-18T06:49:12.858Z,85.41
2023-04-18T06:54:19.306Z,84.98
2023-04-18T06:59:25.624Z,85.71
2023-04-18T07:04:33.607Z,84.92
2023-04-18T07:09:40.178Z,83.97
2023-04-18T07:14:46.465Z,83.66
2023-04-18T07:19:54.256Z,84.17
2023-04-18T07:25:00.482Z,83.91
2023-04-18T07:30:08.564Z,83.47
2023-04-18T07:35:16.914Z,83.06
2023-04-18T07:40:23.856Z,82.51
2023-04-18T07:45:30.448Z,82.70
2023-04-18T07:50:38.179Z,82.75
2023-04-18T07:55:45.224Z,80.89
2023-04-18T08:00:51.642Z,80.15
2023-04-18T08:05:59.521Z,79.82
2023-04-18T08:11:06.033Z,79.63
2023-04-18T08:16:13.723Z,78.72
2023-04-18T08:21:23.454Z,77.30
2023-04-18T08:26:29.805Z,77.89
2023-04-18T08:31:36.226Z,77.90
2023-04-18T08:36:44.184Z,78.11
2023-04-18T08:41:59.795Z,75.42
2023-04-18T08:47:06.489Z,76.58
2023-04-18T08:52:17.045Z,76.99
2023-04-18T08:57:27.363Z,76.83
2023-04-18T09:02:43.932Z,75.33
2023-04-18T09:08:26.126Z,75.70
2023-04-18T09:13:46.645Z,74.92
2023-04-18T09:19:14.276Z,73.58
2023-04-18T09:24:26.786Z,71.96
2023-04-18T09:29:47.896Z,70.62
2023-04-18T09:34:58.539Z,69.99
2023-04-18T09:40:19.691Z,72.05
2023-04-18T09:45:27.611Z,72.52
2023-04-18T09:50:36.211Z,73.10
2023-04-18T09:55:45.328Z,72.58
2023-04-18T10:00:53.031Z,73.13
2023-04-18T10:05:59.699Z,72.63
2023-04-18T10:11:07.864Z,73.11
2023-04-18T10:16:14.765Z,72.82
2023-04-18T10:21:21.032Z,72.03
2023-04-18T10:26:50.594Z,71.07
2023-04-18T10:31:57.164Z,71.02
2023-04-18T10:37:07.750Z,70.53
2023-04-18T10:42:15.600Z,69.65
2023-04-18T10:47:25.088Z,69.74
2023-04-18T10:52:31.991Z,68.65
2023-04-18T10:57:47.594Z,66.76
2023-04-18T11:02:58.097Z,68.14
2023-04-18T11:08:04.926Z,65.79
2023-04-18T11:13:12.632Z,63.92
2023-04-18T11:18:19.141Z,64.01
2023-04-18T11:23:25.899Z,62.27
2023-04-18T11:28:33.971Z,63.94
2023-04-18T11:33:40.458Z,64.73
2023-04-18T11:38:46.895Z,65.96
2023-04-18T11:43:54.802Z,65.69
2023-04-18T11:49:01.077Z,66.00
2023-04-18T11:54:07.733Z,65.31
2023-04-18T11:59:15.758Z,63.06
2023-04-18T12:04:22.529Z,63.28
2023-04-18T12:09:29.359Z,64.37
2023-04-18T12:14:38.246Z,64.88
2023-04-18T12:19:48.010Z,64.51
2023-04-18T12:25:24.341Z,64.24
2023-04-18T12:30:37.733Z,62.73
2023-04-18T12:35:44.479Z,62.50
2023-04-18T12:40:51.448Z,63.28
2023-04-18T12:45:59.849Z,61.94
2023-04-18T12:51:12.254Z,61.83
2023-04-18T12:56:19.235Z,60.35
2023-04-18T13:01:28.065Z,100.00
2023-04-18T13:06:34.829Z,61.33
2023-04-18T13:11:41.602Z,100.00
2023-04-18T13:16:49.915Z,100.00
2023-04-18T13:21:57.143Z,100.00
2023-04-18T13:27:10.503Z,100.00
2023-04-18T13:32:18.646Z,100.00
2023-04-18T13:37:25.785Z,100.00
2023-04-18T13:42:34.290Z,100.00
2023-04-18T13:47:42.236Z,100.00
2023-04-18T13:52:49.672Z,100.00
2023-04-18T13:57:56.141Z,100.00
2023-04-18T14:03:04.223Z,100.00
2023-04-18T14:08:10.779Z,100.00
2023-04-18T14:13:17.047Z,100.00
2023-04-18T14:18:25.036Z,100.00
2023-04-18T14:23:31.388Z,100.00
2023-04-18T14:28:37.680Z,100.00
2023-04-18T14:33:45.532Z,100.00
2023-04-18T14:38:51.772Z,100.00
2023-04-18T14:43:58.122Z,100.00
2023-04-18T14:49:05.984Z,100.00
2023-04-18T14:54:12.465Z,100.00
2023-04-18T14:59:19.148Z,100.00
2023-04-18T15:04:27.676Z,100.00
2023-04-18T15:09:38.432Z,100.00
2023-04-18T15:14:45.065Z,100.00
2023-04-18T15:19:52.980Z,100.00
2023-04-18T15:24:59.391Z,100.00
2023-04-18T15:30:06.350Z,100.00
2023-04-18T15:35:14.621Z,100.00
2023-04-18T15:40:21.368Z,100.00
2023-04-18T15:45:27.644Z,100.00
2023-04-18T15:50:35.379Z,100.00
2023-04-18T15:55:41.753Z,100.00
2023-04-18T16:00:48.299Z,100.00
2023-04-18T16:05:56.176Z,100.00
2023-04-18T16:11:02.702Z,100.00
2023-04-18T16:16:09.793Z,100.00
2023-04-18T16:21:17.930Z,100.00
2023-04-18T16:26:25.702Z,100.00
2023-04-18T16:31:32.137Z,100.00
2023-04-18T16:36:40.687Z,100.00
2023-04-18T16:41:47.221Z,100.00
2023-04-18T16:46:53.776Z,100.00
2023-04-18T16:52:02.226Z,100.00
2023-04-18T16:57:09.180Z,100.00
2023-04-18T17:02:16.628Z,100.00
2023-04-18T17:07:24.872Z,100.00
2023-04-18T17:12:31.921Z,100.00
2023-04-18T17:17:39.025Z,100.00
2023-04-18T17:22:47.084Z,100.00
2023-04-18T17:27:54.262Z,100.00
2023-04-18T17:33:01.596Z,100.00
2023-04-18T17:38:10.944Z,100.00
2023-04-18T17:43:19.454Z,100.00
2023-04-18T17:48:26.744Z,100.00
2023-04-18T17:53:37.299Z,100.00
2023-04-18T17:58:48.645Z,100.00
2023-04-18T18:03:57.123Z,100.00
2023-04-18T18:09:07.126Z,100.00
2023-04-18T18:14:15.521Z,100.00
2023-04-18T18:19:24.558Z,100.00
2023-04-18T18:24:34.611Z,100.00
2023-04-18T18:29:43.946Z,100.00
2023-04-18T18:34:51.930Z,100.00
2023-04-18T18:40:08.186Z,100.00
2023-04-18T18:45:17.631Z,100.00
2023-04-18T18:50:26.986Z,100.00
2023-04-18T18:55:37.024Z,100.00
2023-04-18T19:00:56.018Z,100.00
2023-04-18T19:06:06.288Z,67.00
2023-04-18T19:11:17.164Z,67.57
2023-04-18T19:16:27.699Z,68.11
2023-04-18T19:21:36.716Z,67.91
2023-04-18T19:26:44.917Z,68.28
2023-04-18T19:31:55.493Z,68.50
2023-04-18T19:37:05.050Z,68.99
2023-04-18T19:42:13.895Z,69.26
2023-04-18T19:47:22.522Z,69.75
2023-04-18T19:52:31.413Z,70.40
2023-04-18T19:57:43.613Z,69.82
2023-04-18T20:02:58.857Z,70.65
2023-04-18T20:08:08.639Z,71.08
2023-04-18T20:13:17.904Z,70.90
2023-04-18T20:18:26.599Z,71.16
2023-04-18T20:23:35.950Z,70.78
2023-04-18T20:28:47.684Z,71.11
2023-04-18T20:33:56.178Z,71.55
2023-04-18T20:39:04.227Z,71.79
2023-04-18T20:44:14.403Z,72.21
2023-04-18T20:49:21.712Z,72.26
2023-04-18T20:54:29.246Z,72.54
2023-04-18T20:59:38.226Z,72.99
2023-04-18T21:04:47.050Z,73.14
2023-04-18T21:09:53.650Z,73.53
2023-04-18T21:15:01.829Z,74.16
2023-04-18T21:20:11.914Z,75.02
2023-04-18T21:25:19.957Z,75.45
2023-04-18T21:30:28.844Z,76.19
2023-04-18T21:35:35.444Z,76.44
2023-04-18T21:40:41.836Z,78.57
2023-04-18T21:45:50.533Z,81.57
2023-04-18T21:50:57.480Z,82.10
2023-04-18T21:56:03.901Z,82.83
2023-04-18T22:01:12.033Z,83.88
2023-04-18T22:06:19.000Z,84.17
2023-04-18T22:11:27.376Z,84.20
2023-04-18T22:16:35.301Z,84.05
2023-04-18T22:21:41.762Z,83.46
2023-04-18T22:26:48.154Z,83.64
2023-04-18T22:31:56.199Z,84.55
2023-04-18T22:37:02.495Z,84.66
2023-04-18T22:42:09.404Z,86.07
2023-04-18T22:47:17.581Z,86.38
2023-04-18T22:52:25.311Z,86.83
2023-04-18T22:57:31.593Z,86.31
2023-04-18T23:02:39.911Z,87.00
2023-04-18T23:07:46.684Z,87.37
2023-04-18T23:12:54.261Z,87.26
2023-04-18T23:18:02.073Z,86.84
2023-04-18T23:23:08.405Z,86.27
2023-04-18T23:28:15.035Z,86.00
2023-04-18T23:33:23.014Z,85.09
2023-04-18T23:38:29.766Z,84.83
2023-04-18T23:43:36.774Z,84.93
2023-04-18T23:48:44.769Z,84.80
2023-04-18T23:53:51.198Z,84.70
2023-04-18T23:59:00.800Z,85.60
